NBT weather

Nicolas Bravo Airport
Macuspana, Tabasco, Mexico

Public forecast

Using degrees Celsius for public forecast. Weather courtesy of forecast.io.

METAR (pilot weather report)

Closest report is Carlos Rovirosa Pérez International Airport, 19.1 nm (35.4 km) NW. Retrieved 2019/06/16 13:40 UTC (19 minutes ago):

MMVA 161340Z 11009KT 7SM SCT015 BKN060 27/24 A2990 RMK 8/130

TAF (pilot weather forecast)

Forecast is more than 6 hours old.

Closest forecast is Carlos Rovirosa Pérez International Airport, 19.1 nm (35.4 km) NW. Retrieved 2019/06/16 06:14 UTC (8 hours ago):

TAF MMVA 160507Z 1606/1706 06005KT P6SM SCT020 BKN080 TEMPO 1610/1614 3SM BR BKN010 FM161600 06010KT P6SM SCT020 SCT080 FM162300 06008KT P6SM SCT020CB BKN080 TEMPO 1623/1703 3SM TSRA